sensor_id;sensor_type;location;lat;lon;timestamp;temperature;humidity
21108;DHT22;10712;52.944;9.098;2024-01-25T00:01:47;7.90;81.90
21108;DHT22;10712;52.944;9.098;2024-01-25T00:04:13;7.90;81.90
21108;DHT22;10712;52.944;9.098;2024-01-25T00:06:39;7.90;81.90
21108;DHT22;10712;52.944;9.098;2024-01-25T00:09:04;7.90;81.60
21108;DHT22;10712;52.944;9.098;2024-01-25T00:11:30;7.90;81.60
21108;DHT22;10712;52.944;9.098;2024-01-25T00:13:57;7.90;81.60
21108;DHT22;10712;52.944;9.098;2024-01-25T00:16:24;7.90;81.50
21108;DHT22;10712;52.944;9.098;2024-01-25T00:18:49;7.90;81.80
21108;DHT22;10712;52.944;9.098;2024-01-25T00:21:16;7.80;81.90
21108;DHT22;10712;52.944;9.098;2024-01-25T00:23:42;7.80;82.00
21108;DHT22;10712;52.944;9.098;2024-01-25T00:26:08;7.80;82.10
21108;DHT22;10712;52.944;9.098;2024-01-25T00:28:34;7.80;82.20
21108;DHT22;10712;52.944;9.098;2024-01-25T00:31:00;7.80;82.40
21108;DHT22;10712;52.944;9.098;2024-01-25T00:33:25;7.70;82.50
21108;DHT22;10712;52.944;9.098;2024-01-25T00:35:52;7.80;82.40
21108;DHT22;10712;52.944;9.098;2024-01-25T00:38:18;7.80;82.50
21108;DHT22;10712;52.944;9.098;2024-01-25T00:40:44;7.80;82.40
21108;DHT22;10712;52.944;9.098;2024-01-25T00:43:11;7.80;82.40
21108;DHT22;10712;52.944;9.098;2024-01-25T00:45:37;7.80;82.40
21108;DHT22;10712;52.944;9.098;2024-01-25T00:48:03;7.90;82.20
21108;DHT22;10712;52.944;9.098;2024-01-25T00:50:29;7.90;82.00
21108;DHT22;10712;52.944;9.098;2024-01-25T00:52:55;7.90;81.90
21108;DHT22;10712;52.944;9.098;2024-01-25T00:55:22;7.90;82.00
21108;DHT22;10712;52.944;9.098;2024-01-25T00:57:48;7.90;81.80
21108;DHT22;10712;52.944;9.098;2024-01-25T01:00:14;7.90;82.00
21108;DHT22;10712;52.944;9.098;2024-01-25T01:02:43;7.90;82.00
21108;DHT22;10712;52.944;9.098;2024-01-25T01:05:10;7.90;82.00
21108;DHT22;10712;52.944;9.098;2024-01-25T01:07:39;7.90;82.10
21108;DHT22;10712;52.944;9.098;2024-01-25T01:10:08;7.90;82.00
21108;DHT22;10712;52.944;9.098;2024-01-25T01:12:35;7.90;82.00
21108;DHT22;10712;52.944;9.098;2024-01-25T01:15:01;7.90;82.00
21108;DHT22;10712;52.944;9.098;2024-01-25T01:17:27;7.80;81.90
21108;DHT22;10712;52.944;9.098;2024-01-25T01:19:53;7.80;82.00
21108;DHT22;10712;52.944;9.098;2024-01-25T01:22:19;7.80;82.10
21108;DHT22;10712;52.944;9.098;2024-01-25T01:24:45;7.80;82.10
21108;DHT22;10712;52.944;9.098;2024-01-25T01:27:10;7.80;82.10
21108;DHT22;10712;52.944;9.098;2024-01-25T01:29:36;7.80;82.20
21108;DHT22;10712;52.944;9.098;2024-01-25T01:32:02;7.80;82.40
21108;DHT22;10712;52.944;9.098;2024-01-25T01:34:28;7.70;82.60
21108;DHT22;10712;52.944;9.098;2024-01-25T01:36:54;7.70;82.70
21108;DHT22;10712;52.944;9.098;2024-01-25T01:39:20;7.70;82.80
21108;DHT22;10712;52.944;9.098;2024-01-25T01:41:48;7.70;82.90
21108;DHT22;10712;52.944;9.098;2024-01-25T01:44:15;7.70;82.90
21108;DHT22;10712;52.944;9.098;2024-01-25T01:46:41;7.70;83.00
21108;DHT22;10712;52.944;9.098;2024-01-25T01:49:11;7.70;83.00
21108;DHT22;10712;52.944;9.098;2024-01-25T01:51:42;7.70;82.90
21108;DHT22;10712;52.944;9.098;2024-01-25T01:54:09;7.70;83.00
21108;DHT22;10712;52.944;9.098;2024-01-25T01:56:36;7.70;83.00
21108;DHT22;10712;52.944;9.098;2024-01-25T01:59:06;7.70;83.00
21108;DHT22;10712;52.944;9.098;2024-01-25T02:01:34;7.70;83.00
21108;DHT22;10712;52.944;9.098;2024-01-25T02:04:00;7.70;83.10
21108;DHT22;10712;52.944;9.098;2024-01-25T02:06:26;7.70;83.20
21108;DHT22;10712;52.944;9.098;2024-01-25T02:08:53;7.70;83.10
21108;DHT22;10712;52.944;9.098;2024-01-25T02:11:19;7.70;83.10
21108;DHT22;10712;52.944;9.098;2024-01-25T02:13:45;7.70;83.10
21108;DHT22;10712;52.944;9.098;2024-01-25T02:16:13;7.70;83.00
21108;DHT22;10712;52.944;9.098;2024-01-25T02:18:41;7.70;83.00
21108;DHT22;10712;52.944;9.098;2024-01-25T02:21:07;7.60;83.10
21108;DHT22;10712;52.944;9.098;2024-01-25T02:23:33;7.60;83.20
21108;DHT22;10712;52.944;9.098;2024-01-25T02:25:59;7.60;83.30
21108;DHT22;10712;52.944;9.098;2024-01-25T02:28:25;7.60;83.30
21108;DHT22;10712;52.944;9.098;2024-01-25T02:30:51;7.60;83.30
21108;DHT22;10712;52.944;9.098;2024-01-25T02:33:17;7.60;83.40
21108;DHT22;10712;52.944;9.098;2024-01-25T02:35:43;7.60;83.50
21108;DHT22;10712;52.944;9.098;2024-01-25T02:38:08;7.60;83.60
21108;DHT22;10712;52.944;9.098;2024-01-25T02:40:34;7.60;83.70
21108;DHT22;10712;52.944;9.098;2024-01-25T02:43:00;7.60;83.70
21108;DHT22;10712;52.944;9.098;2024-01-25T02:45:26;7.60;83.60
21108;DHT22;10712;52.944;9.098;2024-01-25T02:47:52;7.60;83.70
21108;DHT22;10712;52.944;9.098;2024-01-25T02:50:18;7.60;83.90
21108;DHT22;10712;52.944;9.098;2024-01-25T02:52:43;7.60;83.70
21108;DHT22;10712;52.944;9.098;2024-01-25T02:55:09;7.60;83.60
21108;DHT22;10712;52.944;9.098;2024-01-25T02:57:35;7.60;83.60
21108;DHT22;10712;52.944;9.098;2024-01-25T03:00:01;7.60;83.60
21108;DHT22;10712;52.944;9.098;2024-01-25T03:02:27;7.50;83.90
21108;DHT22;10712;52.944;9.098;2024-01-25T03:04:53;7.50;84.10
21108;DHT22;10712;52.944;9.098;2024-01-25T03:07:18;7.50;84.10
21108;DHT22;10712;52.944;9.098;2024-01-25T03:09:44;7.50;84.20
21108;DHT22;10712;52.944;9.098;2024-01-25T03:12:10;7.40;84.30
21108;DHT22;10712;52.944;9.098;2024-01-25T03:14:36;7.40;84.30
21108;DHT22;10712;52.944;9.098;2024-01-25T03:17:02;7.40;84.40
21108;DHT22;10712;52.944;9.098;2024-01-25T03:19:28;7.40;84.50
21108;DHT22;10712;52.944;9.098;2024-01-25T03:21:54;7.40;84.50
21108;DHT22;10712;52.944;9.098;2024-01-25T03:24:23;7.40;84.70
21108;DHT22;10712;52.944;9.098;2024-01-25T03:26:50;7.40;84.80
21108;DHT22;10712;52.944;9.098;2024-01-25T03:29:15;7.30;85.00
21108;DHT22;10712;52.944;9.098;2024-01-25T03:31:41;7.30;85.00
21108;DHT22;10712;52.944;9.098;2024-01-25T03:34:07;7.30;85.10
21108;DHT22;10712;52.944;9.098;2024-01-25T03:36:33;7.30;85.00
21108;DHT22;10712;52.944;9.098;2024-01-25T03:38:59;7.30;84.90
21108;DHT22;10712;52.944;9.098;2024-01-25T03:41:25;7.30;85.00
21108;DHT22;10712;52.944;9.098;2024-01-25T03:43:51;7.30;85.10
21108;DHT22;10712;52.944;9.098;2024-01-25T03:46:17;7.20;85.30
21108;DHT22;10712;52.944;9.098;2024-01-25T03:48:43;7.20;85.40
21108;DHT22;10712;52.944;9.098;2024-01-25T03:51:09;7.20;85.60
21108;DHT22;10712;52.944;9.098;2024-01-25T03:53:34;7.10;85.60
21108;DHT22;10712;52.944;9.098;2024-01-25T03:56:00;7.10;85.70
21108;DHT22;10712;52.944;9.098;2024-01-25T03:58:26;7.10;85.80
21108;DHT22;10712;52.944;9.098;2024-01-25T04:00:52;7.00;85.80
21108;DHT22;10712;52.944;9.098;2024-01-25T04:03:18;7.00;85.80
21108;DHT22;10712;52.944;9.098;2024-01-25T04:05:44;7.00;86.00
21108;DHT22;10712;52.944;9.098;2024-01-25T04:08:10;7.00;86.20
21108;DHT22;10712;52.944;9.098;2024-01-25T04:10:36;7.00;86.20
21108;DHT22;10712;52.944;9.098;2024-01-25T04:13:02;7.00;86.20
21108;DHT22;10712;52.944;9.098;2024-01-25T04:15:30;7.00;86.20
21108;DHT22;10712;52.944;9.098;2024-01-25T04:17:56;7.00;86.30
21108;DHT22;10712;52.944;9.098;2024-01-25T04:20:22;7.00;86.30
21108;DHT22;10712;52.944;9.098;2024-01-25T04:22:48;6.90;86.30
21108;DHT22;10712;52.944;9.098;2024-01-25T04:25:14;6.90;86.50
21108;DHT22;10712;52.944;9.098;2024-01-25T04:27:41;6.90;86.60
21108;DHT22;10712;52.944;9.098;2024-01-25T04:30:07;6.90;86.60
21108;DHT22;10712;52.944;9.098;2024-01-25T04:32:34;6.90;86.50
21108;DHT22;10712;52.944;9.098;2024-01-25T04:35:00;6.90;86.60
21108;DHT22;10712;52.944;9.098;2024-01-25T04:37:26;6.90;86.70
21108;DHT22;10712;52.944;9.098;2024-01-25T04:39:52;6.90;86.80
21108;DHT22;10712;52.944;9.098;2024-01-25T04:42:18;6.90;86.80
21108;DHT22;10712;52.944;9.098;2024-01-25T04:44:44;6.80;86.80
21108;DHT22;10712;52.944;9.098;2024-01-25T04:47:10;6.80;86.90
21108;DHT22;10712;52.944;9.098;2024-01-25T04:49:36;6.80;87.00
21108;DHT22;10712;52.944;9.098;2024-01-25T04:52:02;6.80;87.10
21108;DHT22;10712;52.944;9.098;2024-01-25T04:54:28;6.80;87.10
21108;DHT22;10712;52.944;9.098;2024-01-25T04:56:54;6.80;87.20
21108;DHT22;10712;52.944;9.098;2024-01-25T04:59:20;6.80;87.30
21108;DHT22;10712;52.944;9.098;2024-01-25T05:01:46;6.80;87.30
21108;DHT22;10712;52.944;9.098;2024-01-25T05:04:12;6.70;87.40
21108;DHT22;10712;52.944;9.098;2024-01-25T05:06:38;6.70;87.40
21108;DHT22;10712;52.944;9.098;2024-01-25T05:09:03;6.70;87.50
21108;DHT22;10712;52.944;9.098;2024-01-25T05:11:29;6.70;87.50
21108;DHT22;10712;52.944;9.098;2024-01-25T05:13:55;6.70;87.50
21108;DHT22;10712;52.944;9.098;2024-01-25T05:16:21;6.70;87.40
21108;DHT22;10712;52.944;9.098;2024-01-25T05:18:47;6.70;87.40
21108;DHT22;10712;52.944;9.098;2024-01-25T05:21:12;6.70;87.40
21108;DHT22;10712;52.944;9.098;2024-01-25T05:23:38;6.60;87.50
21108;DHT22;10712;52.944;9.098;2024-01-25T05:26:05;6.60;87.60
21108;DHT22;10712;52.944;9.098;2024-01-25T05:28:31;6.60;87.70
21108;DHT22;10712;52.944;9.098;2024-01-25T05:30:57;6.60;87.80
21108;DHT22;10712;52.944;9.098;2024-01-25T05:33:23;6.60;87.90
21108;DHT22;10712;52.944;9.098;2024-01-25T05:35:49;6.60;87.90
21108;DHT22;10712;52.944;9.098;2024-01-25T05:38:15;6.60;87.90
21108;DHT22;10712;52.944;9.098;2024-01-25T05:40:42;6.60;88.00
21108;DHT22;10712;52.944;9.098;2024-01-25T05:43:07;6.60;88.10
21108;DHT22;10712;52.944;9.098;2024-01-25T05:45:33;6.60;88.10
21108;DHT22;10712;52.944;9.098;2024-01-25T05:47:59;6.50;88.00
21108;DHT22;10712;52.944;9.098;2024-01-25T05:50:25;6.50;88.10
21108;DHT22;10712;52.944;9.098;2024-01-25T05:52:51;6.50;88.10
21108;DHT22;10712;52.944;9.098;2024-01-25T05:55:17;6.50;88.30
21108;DHT22;10712;52.944;9.098;2024-01-25T05:57:43;6.50;88.30
21108;DHT22;10712;52.944;9.098;2024-01-25T06:00:12;6.50;88.30
21108;DHT22;10712;52.944;9.098;2024-01-25T06:02:39;6.50;88.50
21108;DHT22;10712;52.944;9.098;2024-01-25T06:05:05;6.50;88.70
21108;DHT22;10712;52.944;9.098;2024-01-25T06:07:31;6.50;88.80
21108;DHT22;10712;52.944;9.098;2024-01-25T06:09:57;6.50;88.80
21108;DHT22;10712;52.944;9.098;2024-01-25T06:12:23;6.50;88.80
21108;DHT22;10712;52.944;9.098;2024-01-25T06:14:48;6.50;88.70
21108;DHT22;10712;52.944;9.098;2024-01-25T06:17:14;6.50;88.80
21108;DHT22;10712;52.944;9.098;2024-01-25T06:19:40;6.50;88.80
21108;DHT22;10712;52.944;9.098;2024-01-25T06:22:05;6.50;88.90
21108;DHT22;10712;52.944;9.098;2024-01-25T06:24:31;6.50;89.00
21108;DHT22;10712;52.944;9.098;2024-01-25T06:26:57;6.50;89.00
21108;DHT22;10712;52.944;9.098;2024-01-25T06:29:23;6.50;89.10
21108;DHT22;10712;52.944;9.098;2024-01-25T06:31:49;6.50;89.20
21108;DHT22;10712;52.944;9.098;2024-01-25T06:34:15;6.50;89.20
21108;DHT22;10712;52.944;9.098;2024-01-25T06:36:41;6.60;89.30
21108;DHT22;10712;52.944;9.098;2024-01-25T06:39:06;6.60;89.20
21108;DHT22;10712;52.944;9.098;2024-01-25T06:41:33;6.60;89.30
21108;DHT22;10712;52.944;9.098;2024-01-25T06:44:01;6.60;89.30
21108;DHT22;10712;52.944;9.098;2024-01-25T06:46:27;6.60;89.30
21108;DHT22;10712;52.944;9.098;2024-01-25T06:48:52;6.60;89.30
21108;DHT22;10712;52.944;9.098;2024-01-25T06:51:18;6.60;89.30
21108;DHT22;10712;52.944;9.098;2024-01-25T06:53:44;6.60;89.30
21108;DHT22;10712;52.944;9.098;2024-01-25T06:56:10;6.60;89.30
21108;DHT22;10712;52.944;9.098;2024-01-25T06:58:36;6.60;89.30
21108;DHT22;10712;52.944;9.098;2024-01-25T07:01:02;6.70;89.40
21108;DHT22;10712;52.944;9.098;2024-01-25T07:03:30;6.60;89.30
21108;DHT22;10712;52.944;9.098;2024-01-25T07:05:55;6.60;89.30
21108;DHT22;10712;52.944;9.098;2024-01-25T07:08:21;6.60;89.30
21108;DHT22;10712;52.944;9.098;2024-01-25T07:10:48;6.60;89.30
21108;DHT22;10712;52.944;9.098;2024-01-25T07:13:14;6.60;89.30
21108;DHT22;10712;52.944;9.098;2024-01-25T07:15:40;6.60;89.30
21108;DHT22;10712;52.944;9.098;2024-01-25T07:18:06;6.60;89.30
21108;DHT22;10712;52.944;9.098;2024-01-25T07:20:32;6.60;89.40
21108;DHT22;10712;52.944;9.098;2024-01-25T07:22:57;6.60;89.40
21108;DHT22;10712;52.944;9.098;2024-01-25T07:25:23;6.60;89.50
21108;DHT22;10712;52.944;9.098;2024-01-25T07:27:50;6.60;89.50
21108;DHT22;10712;52.944;9.098;2024-01-25T07:30:16;6.60;89.50
21108;DHT22;10712;52.944;9.098;2024-01-25T07:32:42;6.60;89.50
21108;DHT22;10712;52.944;9.098;2024-01-25T07:35:11;6.60;89.50
21108;DHT22;10712;52.944;9.098;2024-01-25T07:37:38;6.60;89.50
21108;DHT22;10712;52.944;9.098;2024-01-25T07:40:06;6.60;89.50
21108;DHT22;10712;52.944;9.098;2024-01-25T07:42:33;6.60;89.50
21108;DHT22;10712;52.944;9.098;2024-01-25T07:44:59;6.60;89.60
21108;DHT22;10712;52.944;9.098;2024-01-25T07:47:24;6.60;89.60
21108;DHT22;10712;52.944;9.098;2024-01-25T07:49:51;6.60;89.70
21108;DHT22;10712;52.944;9.098;2024-01-25T07:52:17;6.60;89.70
21108;DHT22;10712;52.944;9.098;2024-01-25T07:54:43;6.60;89.70
21108;DHT22;10712;52.944;9.098;2024-01-25T07:57:09;6.60;89.80
21108;DHT22;10712;52.944;9.098;2024-01-25T07:59:35;6.60;89.80
21108;DHT22;10712;52.944;9.098;2024-01-25T08:02:01;6.60;89.80
21108;DHT22;10712;52.944;9.098;2024-01-25T08:04:27;6.60;89.80
21108;DHT22;10712;52.944;9.098;2024-01-25T08:06:53;6.60;89.80
21108;DHT22;10712;52.944;9.098;2024-01-25T08:09:18;6.60;89.80
21108;DHT22;10712;52.944;9.098;2024-01-25T08:11:45;6.60;89.90
21108;DHT22;10712;52.944;9.098;2024-01-25T08:14:11;6.60;89.90
21108;DHT22;10712;52.944;9.098;2024-01-25T08:16:37;6.60;89.90
21108;DHT22;10712;52.944;9.098;2024-01-25T08:19:03;6.60;89.80
21108;DHT22;10712;52.944;9.098;2024-01-25T08:21:30;6.70;89.80
21108;DHT22;10712;52.944;9.098;2024-01-25T08:23:56;6.70;89.70
21108;DHT22;10712;52.944;9.098;2024-01-25T08:26:21;6.70;89.70
21108;DHT22;10712;52.944;9.098;2024-01-25T08:28:47;6.70;89.70
21108;DHT22;10712;52.944;9.098;2024-01-25T08:31:13;6.70;89.80
21108;DHT22;10712;52.944;9.098;2024-01-25T08:33:39;6.70;89.80
21108;DHT22;10712;52.944;9.098;2024-01-25T08:36:10;6.70;89.90
21108;DHT22;10712;52.944;9.098;2024-01-25T08:38:36;6.60;89.80
21108;DHT22;10712;52.944;9.098;2024-01-25T08:41:02;6.70;89.90
21108;DHT22;10712;52.944;9.098;2024-01-25T08:43:28;6.70;89.90
21108;DHT22;10712;52.944;9.098;2024-01-25T08:45:54;6.70;89.90
21108;DHT22;10712;52.944;9.098;2024-01-25T08:48:20;6.70;89.90
21108;DHT22;10712;52.944;9.098;2024-01-25T08:50:46;6.70;90.00
21108;DHT22;10712;52.944;9.098;2024-01-25T08:53:12;6.70;89.90
21108;DHT22;10712;52.944;9.098;2024-01-25T08:55:37;6.70;89.80
21108;DHT22;10712;52.944;9.098;2024-01-25T08:58:04;6.70;89.80
21108;DHT22;10712;52.944;9.098;2024-01-25T09:00:29;6.80;89.60
21108;DHT22;10712;52.944;9.098;2024-01-25T09:02:55;6.80;89.60
21108;DHT22;10712;52.944;9.098;2024-01-25T09:05:21;6.80;89.60
21108;DHT22;10712;52.944;9.098;2024-01-25T09:07:47;6.80;89.60
21108;DHT22;10712;52.944;9.098;2024-01-25T09:10:13;6.80;89.60
21108;DHT22;10712;52.944;9.098;2024-01-25T09:12:40;6.80;89.60
21108;DHT22;10712;52.944;9.098;2024-01-25T09:15:07;6.80;89.60
21108;DHT22;10712;52.944;9.098;2024-01-25T09:17:33;6.80;89.60
21108;DHT22;10712;52.944;9.098;2024-01-25T09:20:00;6.80;89.40
21108;DHT22;10712;52.944;9.098;2024-01-25T09:22:26;6.80;89.50
21108;DHT22;10712;52.944;9.098;2024-01-25T09:24:52;6.80;89.40
21108;DHT22;10712;52.944;9.098;2024-01-25T09:27:18;6.90;89.20
21108;DHT22;10712;52.944;9.098;2024-01-25T09:29:44;6.90;89.30
21108;DHT22;10712;52.944;9.098;2024-01-25T09:32:10;6.90;89.20
21108;DHT22;10712;52.944;9.098;2024-01-25T09:34:36;6.90;89.30
21108;DHT22;10712;52.944;9.098;2024-01-25T09:37:03;6.90;89.30
21108;DHT22;10712;52.944;9.098;2024-01-25T09:39:31;6.90;89.20
21108;DHT22;10712;52.944;9.098;2024-01-25T09:41:57;6.90;88.90
21108;DHT22;10712;52.944;9.098;2024-01-25T09:44:24;6.90;88.80
21108;DHT22;10712;52.944;9.098;2024-01-25T09:46:51;6.90;89.00
21108;DHT22;10712;52.944;9.098;2024-01-25T09:49:17;6.90;89.00
21108;DHT22;10712;52.944;9.098;2024-01-25T09:51:44;6.90;88.90
21108;DHT22;10712;52.944;9.098;2024-01-25T09:54:10;6.90;88.90
21108;DHT22;10712;52.944;9.098;2024-01-25T09:56:36;7.00;88.90
21108;DHT22;10712;52.944;9.098;2024-01-25T09:59:08;7.00;88.80
21108;DHT22;10712;52.944;9.098;2024-01-25T10:01:34;7.10;88.70
21108;DHT22;10712;52.944;9.098;2024-01-25T10:04:00;7.10;88.60
21108;DHT22;10712;52.944;9.098;2024-01-25T10:06:26;7.10;88.70
21108;DHT22;10712;52.944;9.098;2024-01-25T10:08:53;7.10;88.60
21108;DHT22;10712;52.944;9.098;2024-01-25T10:11:19;7.10;88.50
21108;DHT22;10712;52.944;9.098;2024-01-25T10:13:46;7.10;88.70
21108;DHT22;10712;52.944;9.098;2024-01-25T10:16:14;7.10;88.70
21108;DHT22;10712;52.944;9.098;2024-01-25T10:18:41;7.00;88.60
21108;DHT22;10712;52.944;9.098;2024-01-25T10:21:11;7.00;88.60
21108;DHT22;10712;52.944;9.098;2024-01-25T10:23:38;7.00;88.60
21108;DHT22;10712;52.944;9.098;2024-01-25T10:26:05;7.00;88.50
21108;DHT22;10712;52.944;9.098;2024-01-25T10:28:31;7.00;88.60
21108;DHT22;10712;52.944;9.098;2024-01-25T10:31:00;7.00;88.60
21108;DHT22;10712;52.944;9.098;2024-01-25T10:33:28;7.00;88.40
21108;DHT22;10712;52.944;9.098;2024-01-25T10:35:54;6.90;88.60
21108;DHT22;10712;52.944;9.098;2024-01-25T10:38:25;6.90;88.70
21108;DHT22;10712;52.944;9.098;2024-01-25T10:40:52;6.90;88.80
21108;DHT22;10712;52.944;9.098;2024-01-25T10:43:19;7.00;88.90
21108;DHT22;10712;52.944;9.098;2024-01-25T10:45:45;7.00;89.00
21108;DHT22;10712;52.944;9.098;2024-01-25T10:48:12;7.00;89.10
21108;DHT22;10712;52.944;9.098;2024-01-25T10:50:38;7.10;89.20
21108;DHT22;10712;52.944;9.098;2024-01-25T10:53:06;7.10;89.30
21108;DHT22;10712;52.944;9.098;2024-01-25T10:55:33;7.20;89.30
21108;DHT22;10712;52.944;9.098;2024-01-25T10:58:00;7.20;88.80
21108;DHT22;10712;52.944;9.098;2024-01-25T11:00:25;7.30;88.30
21108;DHT22;10712;52.944;9.098;2024-01-25T11:02:51;7.30;88.20
21108;DHT22;10712;52.944;9.098;2024-01-25T11:05:18;7.30;88.10
21108;DHT22;10712;52.944;9.098;2024-01-25T11:07:48;7.30;87.70
21108;DHT22;10712;52.944;9.098;2024-01-25T11:10:20;7.30;87.80
21108;DHT22;10712;52.944;9.098;2024-01-25T11:12:51;7.20;87.60
21108;DHT22;10712;52.944;9.098;2024-01-25T11:15:35;7.20;87.70
21108;DHT22;10712;52.944;9.098;2024-01-25T11:18:03;7.20;87.50
21108;DHT22;10712;52.944;9.098;2024-01-25T11:20:33;7.10;87.70
21108;DHT22;10712;52.944;9.098;2024-01-25T11:23:04;7.10;88.10
21108;DHT22;10712;52.944;9.098;2024-01-25T11:25:33;7.10;88.00
21108;DHT22;10712;52.944;9.098;2024-01-25T11:28:01;7.20;88.00
21108;DHT22;10712;52.944;9.098;2024-01-25T11:30:30;7.20;88.00
21108;DHT22;10712;52.944;9.098;2024-01-25T11:32:58;7.20;88.20
21108;DHT22;10712;52.944;9.098;2024-01-25T11:35:24;7.30;88.10
21108;DHT22;10712;52.944;9.098;2024-01-25T11:37:50;7.30;88.00
21108;DHT22;10712;52.944;9.098;2024-01-25T11:40:19;7.40;87.80
21108;DHT22;10712;52.944;9.098;2024-01-25T11:42:49;7.40;87.40
21108;DHT22;10712;52.944;9.098;2024-01-25T11:45:16;7.40;86.90
21108;DHT22;10712;52.944;9.098;2024-01-25T11:47:44;7.40;86.80
21108;DHT22;10712;52.944;9.098;2024-01-25T11:50:11;7.40;86.80
21108;DHT22;10712;52.944;9.098;2024-01-25T11:52:38;7.40;87.00
21108;DHT22;10712;52.944;9.098;2024-01-25T11:55:06;7.40;87.20
21108;DHT22;10712;52.944;9.098;2024-01-25T11:57:36;7.40;87.10
21108;DHT22;10712;52.944;9.098;2024-01-25T12:00:07;7.50;86.90
21108;DHT22;10712;52.944;9.098;2024-01-25T12:02:36;7.50;86.70
21108;DHT22;10712;52.944;9.098;2024-01-25T12:05:03;7.40;86.90
21108;DHT22;10712;52.944;9.098;2024-01-25T12:07:31;7.40;86.80
21108;DHT22;10712;52.944;9.098;2024-01-25T12:10:03;7.40;86.70
21108;DHT22;10712;52.944;9.098;2024-01-25T12:12:30;7.40;86.70
21108;DHT22;10712;52.944;9.098;2024-01-25T12:15:00;7.40;86.50
21108;DHT22;10712;52.944;9.098;2024-01-25T12:17:29;7.40;86.60
21108;DHT22;10712;52.944;9.098;2024-01-25T12:19:56;7.40;86.80
21108;DHT22;10712;52.944;9.098;2024-01-25T12:22:26;7.40;86.80
21108;DHT22;10712;52.944;9.098;2024-01-25T12:24:57;7.50;86.50
21108;DHT22;10712;52.944;9.098;2024-01-25T12:27:24;7.50;86.50
21108;DHT22;10712;52.944;9.098;2024-01-25T12:29:52;7.50;86.30
21108;DHT22;10712;52.944;9.098;2024-01-25T12:32:22;7.50;86.20
21108;DHT22;10712;52.944;9.098;2024-01-25T12:34:58;7.50;86.00
21108;DHT22;10712;52.944;9.098;2024-01-25T12:37:26;7.40;86.20
21108;DHT22;10712;52.944;9.098;2024-01-25T12:39:53;7.50;86.20
21108;DHT22;10712;52.944;9.098;2024-01-25T12:42:20;7.50;86.30
21108;DHT22;10712;52.944;9.098;2024-01-25T12:44:47;7.60;86.30
21108;DHT22;10712;52.944;9.098;2024-01-25T12:47:13;7.60;86.30
21108;DHT22;10712;52.944;9.098;2024-01-25T12:49:43;7.70;86.40
21108;DHT22;10712;52.944;9.098;2024-01-25T12:52:13;7.80;86.40
21108;DHT22;10712;52.944;9.098;2024-01-25T12:54:41;7.80;85.20
21108;DHT22;10712;52.944;9.098;2024-01-25T12:57:07;7.80;85.00
21108;DHT22;10712;52.944;9.098;2024-01-25T12:59:34;7.80;84.90
21108;DHT22;10712;52.944;9.098;2024-01-25T13:02:01;7.80;84.90
21108;DHT22;10712;52.944;9.098;2024-01-25T13:04:27;7.70;85.00
21108;DHT22;10712;52.944;9.098;2024-01-25T13:06:54;7.70;85.10
21108;DHT22;10712;52.944;9.098;2024-01-25T13:09:23;7.70;84.90
21108;DHT22;10712;52.944;9.098;2024-01-25T13:11:50;7.70;84.80
21108;DHT22;10712;52.944;9.098;2024-01-25T13:14:19;7.70;84.70
21108;DHT22;10712;52.944;9.098;2024-01-25T13:16:45;7.70;85.00
21108;DHT22;10712;52.944;9.098;2024-01-25T13:19:11;7.60;85.10
21108;DHT22;10712;52.944;9.098;2024-01-25T13:21:37;7.60;85.20
21108;DHT22;10712;52.944;9.098;2024-01-25T13:24:04;7.60;85.30
21108;DHT22;10712;52.944;9.098;2024-01-25T13:26:30;7.60;85.40
21108;DHT22;10712;52.944;9.098;2024-01-25T13:28:56;7.60;85.40
21108;DHT22;10712;52.944;9.098;2024-01-25T13:31:22;7.60;85.40
21108;DHT22;10712;52.944;9.098;2024-01-25T13:33:48;7.60;85.70
21108;DHT22;10712;52.944;9.098;2024-01-25T13:36:13;7.60;85.80
21108;DHT22;10712;52.944;9.098;2024-01-25T13:38:40;7.60;85.90
21108;DHT22;10712;52.944;9.098;2024-01-25T13:41:06;7.60;86.00
21108;DHT22;10712;52.944;9.098;2024-01-25T13:43:32;7.60;86.10
21108;DHT22;10712;52.944;9.098;2024-01-25T13:45:58;7.60;86.40
21108;DHT22;10712;52.944;9.098;2024-01-25T13:48:24;7.60;86.50
21108;DHT22;10712;52.944;9.098;2024-01-25T13:50:49;7.70;86.70
21108;DHT22;10712;52.944;9.098;2024-01-25T13:53:15;7.80;86.90
21108;DHT22;10712;52.944;9.098;2024-01-25T13:55:41;7.80;86.80
21108;DHT22;10712;52.944;9.098;2024-01-25T13:58:07;7.80;86.50
21108;DHT22;10712;52.944;9.098;2024-01-25T14:00:33;7.90;86.50
21108;DHT22;10712;52.944;9.098;2024-01-25T14:02:58;7.90;86.60
21108;DHT22;10712;52.944;9.098;2024-01-25T14:05:24;7.90;86.40
21108;DHT22;10712;52.944;9.098;2024-01-25T14:07:50;8.00;86.40
21108;DHT22;10712;52.944;9.098;2024-01-25T14:10:16;8.00;86.30
21108;DHT22;10712;52.944;9.098;2024-01-25T14:12:42;8.00;86.10
21108;DHT22;10712;52.944;9.098;2024-01-25T14:15:09;8.00;86.00
21108;DHT22;10712;52.944;9.098;2024-01-25T14:17:35;8.00;86.00
21108;DHT22;10712;52.944;9.098;2024-01-25T14:20:02;8.00;86.00
21108;DHT22;10712;52.944;9.098;2024-01-25T14:22:30;8.00;86.00
21108;DHT22;10712;52.944;9.098;2024-01-25T14:24:56;7.90;86.00
21108;DHT22;10712;52.944;9.098;2024-01-25T14:27:22;7.90;86.10
21108;DHT22;10712;52.944;9.098;2024-01-25T14:29:47;7.90;86.10
21108;DHT22;10712;52.944;9.098;2024-01-25T14:32:13;7.90;86.30
21108;DHT22;10712;52.944;9.098;2024-01-25T14:34:39;7.90;86.20
21108;DHT22;10712;52.944;9.098;2024-01-25T14:37:06;7.80;86.30
21108;DHT22;10712;52.944;9.098;2024-01-25T14:39:31;7.80;86.30
21108;DHT22;10712;52.944;9.098;2024-01-25T14:41:57;7.80;86.20
21108;DHT22;10712;52.944;9.098;2024-01-25T14:44:23;7.80;86.20
21108;DHT22;10712;52.944;9.098;2024-01-25T14:46:49;7.80;86.20
21108;DHT22;10712;52.944;9.098;2024-01-25T14:49:15;7.80;86.20
21108;DHT22;10712;52.944;9.098;2024-01-25T14:51:41;7.80;86.10
21108;DHT22;10712;52.944;9.098;2024-01-25T14:54:07;7.80;86.00
21108;DHT22;10712;52.944;9.098;2024-01-25T14:56:33;7.80;85.90
21108;DHT22;10712;52.944;9.098;2024-01-25T14:58:59;7.80;85.90
21108;DHT22;10712;52.944;9.098;2024-01-25T15:01:24;7.70;86.00
21108;DHT22;10712;52.944;9.098;2024-01-25T15:03:54;7.70;86.10
21108;DHT22;10712;52.944;9.098;2024-01-25T15:06:21;7.70;86.20
21108;DHT22;10712;52.944;9.098;2024-01-25T15:08:47;7.70;86.10
21108;DHT22;10712;52.944;9.098;2024-01-25T15:11:13;7.70;86.10
21108;DHT22;10712;52.944;9.098;2024-01-25T15:13:38;7.60;86.20
21108;DHT22;10712;52.944;9.098;2024-01-25T15:16:04;7.60;86.30
21108;DHT22;10712;52.944;9.098;2024-01-25T15:18:31;7.60;86.40
21108;DHT22;10712;52.944;9.098;2024-01-25T15:20:57;7.50;86.40
21108;DHT22;10712;52.944;9.098;2024-01-25T15:23:23;7.50;86.50
21108;DHT22;10712;52.944;9.098;2024-01-25T15:25:48;7.50;86.40
21108;DHT22;10712;52.944;9.098;2024-01-25T15:28:15;7.50;86.50
21108;DHT22;10712;52.944;9.098;2024-01-25T15:30:41;7.40;86.70
21108;DHT22;10712;52.944;9.098;2024-01-25T15:33:08;7.40;86.80
21108;DHT22;10712;52.944;9.098;2024-01-25T15:35:33;7.40;86.80
21108;DHT22;10712;52.944;9.098;2024-01-25T15:37:59;7.40;86.90
21108;DHT22;10712;52.944;9.098;2024-01-25T15:40:34;7.40;86.90